sensor_id;sensor_type;location;lat;lon;timestamp;pressure;altitude;pressure_sealevel;temperature;humidity
11314;BME280;5712;48.858;9.206;2023-03-22T00:02:22;98009.94;;;9.10;100.00
11314;BME280;5712;48.858;9.206;2023-03-22T00:04:50;98009.94;;;9.10;100.00
11314;BME280;5712;48.858;9.206;2023-03-22T00:07:16;98014.97;;;9.00;100.00
11314;BME280;5712;48.858;9.206;2023-03-22T00:09:43;98018.44;;;9.01;100.00
11314;BME280;5712;48.858;9.206;2023-03-22T00:12:09;98011.59;;;8.98;100.00
11314;BME280;5712;48.858;9.206;2023-03-22T00:14:36;98002.94;;;8.96;100.00
11314;BME280;5712;48.858;9.206;2023-03-22T00:17:04;98005.28;;;9.01;100.00
11314;BME280;5712;48.858;9.206;2023-03-22T00:19:31;98007.59;;;9.05;100.00
11314;BME280;5712;48.858;9.206;2023-03-22T00:21:58;97994.13;;;9.10;100.00
11314;BME280;5712;48.858;9.206;2023-03-22T00:24:24;97995.84;;;9.11;100.00
11314;BME280;5712;48.858;9.206;2023-03-22T00:26:51;97998.16;;;9.15;100.00
11314;BME280;5712;48.858;9.206;2023-03-22T00:29:17;97988.25;;;9.19;100.00
11314;BME280;5712;48.858;9.206;2023-03-22T00:31:46;97984.47;;;9.23;100.00
11314;BME280;5712;48.858;9.206;2023-03-22T00:34:15;97985.22;;;9.25;100.00
11314;BME280;5712;48.858;9.206;2023-03-22T00:36:42;97984.47;;;9.23;100.00
11314;BME280;5712;48.858;9.206;2023-03-22T00:39:08;97988.69;;;9.25;100.00
11314;BME280;5712;48.858;9.206;2023-03-22T00:41:35;97998.19;;;9.28;100.00
11314;BME280;5712;48.858;9.206;2023-03-22T00:44:01;97989.53;;;9.26;100.00
11314;BME280;5712;48.858;9.206;2023-03-22T00:46:28;97990.66;;;9.22;100.00
11314;BME280;5712;48.858;9.206;2023-03-22T00:48:54;97983.81;;;9.19;100.00
11314;BME280;5712;48.858;9.206;2023-03-22T00:51:23;97981.47;;;9.15;100.00
11314;BME280;5712;48.858;9.206;2023-03-22T00:53:49;97978.28;;;9.10;100.00
11314;BME280;5712;48.858;9.206;2023-03-22T00:56:18;97974.75;;;9.11;100.00
11314;BME280;5712;48.858;9.206;2023-03-22T00:58:47;97972.28;;;9.08;100.00
11314;BME280;5712;48.858;9.206;2023-03-22T01:01:13;97969.25;;;9.14;100.00
11314;BME280;5712;48.858;9.206;2023-03-22T01:03:41;97967.16;;;9.19;100.00
11314;BME280;5712;48.858;9.206;2023-03-22T01:06:08;97970.53;;;9.21;100.00
11314;BME280;5712;48.858;9.206;2023-03-22T01:08:36;97970.34;;;9.24;100.00
11314;BME280;5712;48.858;9.206;2023-03-22T01:11:03;97966.13;;;9.34;100.00
11314;BME280;5712;48.858;9.206;2023-03-22T01:13:30;97962.53;;;9.35;100.00
11314;BME280;5712;48.858;9.206;2023-03-22T01:15:56;97958.44;;;9.31;100.00
11314;BME280;5712;48.858;9.206;2023-03-22T01:18:23;97953.88;;;9.20;100.00
11314;BME280;5712;48.858;9.206;2023-03-22T01:20:50;97953.66;;;9.11;100.00
11314;BME280;5712;48.858;9.206;2023-03-22T01:23:16;97952.56;;;9.01;100.00
11314;BME280;5712;48.858;9.206;2023-03-22T01:25:44;97953.91;;;8.94;100.00
11314;BME280;5712;48.858;9.206;2023-03-22T01:28:11;97948.38;;;8.84;100.00
11314;BME280;5712;48.858;9.206;2023-03-22T01:30:38;97941.16;;;8.74;100.00
11314;BME280;5712;48.858;9.206;2023-03-22T01:33:05;97943.06;;;8.72;100.00
11314;BME280;5712;48.858;9.206;2023-03-22T01:35:32;97943.06;;;8.72;100.00
11314;BME280;5712;48.858;9.206;2023-03-22T01:37:58;97941.28;;;8.72;100.00
11314;BME280;5712;48.858;9.206;2023-03-22T01:40:25;97938.53;;;8.74;100.00
11314;BME280;5712;48.858;9.206;2023-03-22T01:42:53;97934.56;;;8.81;100.00
11314;BME280;5712;48.858;9.206;2023-03-22T01:45:39;97925.25;;;8.75;100.00
11314;BME280;5712;48.858;9.206;2023-03-22T01:48:10;97937.44;;;8.64;100.00
11314;BME280;5712;48.858;9.206;2023-03-22T01:50:39;97928.66;;;8.51;100.00
11314;BME280;5712;48.858;9.206;2023-03-22T01:53:10;97927.75;;;8.38;100.00
11314;BME280;5712;48.858;9.206;2023-03-22T01:55:38;97921.53;;;8.25;100.00
11314;BME280;5712;48.858;9.206;2023-03-22T01:58:07;97931.03;;;8.13;100.00
11314;BME280;5712;48.858;9.206;2023-03-22T02:00:34;97935.81;;;8.07;100.00
11314;BME280;5712;48.858;9.206;2023-03-22T02:03:01;97934.63;;;7.98;100.00
11314;BME280;5712;48.858;9.206;2023-03-22T02:05:27;97928.97;;;7.90;100.00
11314;BME280;5712;48.858;9.206;2023-03-22T02:07:55;97929.34;;;7.84;100.00
11314;BME280;5712;48.858;9.206;2023-03-22T02:10:23;97928.91;;;7.78;100.00
11314;BME280;5712;48.858;9.206;2023-03-22T02:12:58;97917.97;;;7.70;100.00
11314;BME280;5712;48.858;9.206;2023-03-22T02:15:32;97917.81;;;7.59;100.00
11314;BME280;5712;48.858;9.206;2023-03-22T02:18:10;97924.56;;;7.49;100.00
11314;BME280;5712;48.858;9.206;2023-03-22T02:21:11;97922.66;;;7.37;100.00
11314;BME280;5712;48.858;9.206;2023-03-22T02:24:02;97920.59;;;7.28;100.00
11314;BME280;5712;48.858;9.206;2023-03-22T02:29:42;97908.94;;;7.32;100.00
11314;BME280;5712;48.858;9.206;2023-03-22T02:38:26;97904.41;;;7.20;100.00
11314;BME280;5712;48.858;9.206;2023-03-22T02:41:08;97901.03;;;7.18;100.00
11314;BME280;5712;48.858;9.206;2023-03-22T02:43:41;97903.59;;;7.20;100.00
11314;BME280;5712;48.858;9.206;2023-03-22T02:46:16;97906.28;;;7.18;100.00
11314;BME280;5712;48.858;9.206;2023-03-22T02:48:49;97902.72;;;7.19;100.00
11314;BME280;5712;48.858;9.206;2023-03-22T02:51:20;97914.19;;;7.18;100.00
11314;BME280;5712;48.858;9.206;2023-03-22T02:53:51;97908.06;;;7.18;100.00
11314;BME280;5712;48.858;9.206;2023-03-22T02:56:24;97907.97;;;7.19;100.00
11314;BME280;5712;48.858;9.206;2023-03-22T02:58:54;97899.16;;;7.20;100.00
11314;BME280;5712;48.858;9.206;2023-03-22T03:01:24;97898.22;;;7.21;100.00
11314;BME280;5712;48.858;9.206;2023-03-22T03:03:55;97903.38;;;7.22;100.00
11314;BME280;5712;48.858;9.206;2023-03-22T03:06:25;97893.91;;;7.20;100.00
11314;BME280;5712;48.858;9.206;2023-03-22T03:08:54;97899.00;;;7.23;100.00
11314;BME280;5712;48.858;9.206;2023-03-22T03:11:23;97895.34;;;7.26;100.00
11314;BME280;5712;48.858;9.206;2023-03-22T03:13:50;97902.44;;;7.23;100.00
11314;BME280;5712;48.858;9.206;2023-03-22T03:16:19;97894.47;;;7.25;100.00
11314;BME280;5712;48.858;9.206;2023-03-22T03:18:50;97895.22;;;7.27;100.00
11314;BME280;5712;48.858;9.206;2023-03-22T03:21:26;97900.69;;;7.24;100.00
11314;BME280;5712;48.858;9.206;2023-03-22T03:24:07;97903.31;;;7.24;100.00
11314;BME280;5712;48.858;9.206;2023-03-22T03:26:42;97902.56;;;7.22;100.00
11314;BME280;5712;48.858;9.206;2023-03-22T03:29:18;97904.34;;;7.22;100.00
11314;BME280;5712;48.858;9.206;2023-03-22T03:31:49;97908.72;;;7.21;100.00
11314;BME280;5712;48.858;9.206;2023-03-22T03:34:21;97905.72;;;7.27;100.00
11314;BME280;5712;48.858;9.206;2023-03-22T03:36:55;97906.28;;;7.18;100.00
11314;BME280;5712;48.858;9.206;2023-03-22T03:39:26;97909.66;;;7.20;100.00
11314;BME280;5712;48.858;9.206;2023-03-22T03:41:56;97907.25;;;7.17;100.00
11314;BME280;5712;48.858;9.206;2023-03-22T03:44:23;97910.69;;;7.18;100.00
11314;BME280;5712;48.858;9.206;2023-03-22T03:46:51;97909.22;;;7.14;100.00
11314;BME280;5712;48.858;9.206;2023-03-22T03:49:21;97912.19;;;7.08;100.00
11314;BME280;5712;48.858;9.206;2023-03-22T03:51:50;97912.06;;;7.09;100.00
11314;BME280;5712;48.858;9.206;2023-03-22T03:54:17;97906.16;;;7.06;100.00
11314;BME280;5712;48.858;9.206;2023-03-22T03:56:44;97907.00;;;7.06;100.00
11314;BME280;5712;48.858;9.206;2023-03-22T03:59:13;97906.16;;;7.06;100.00
11314;BME280;5712;48.858;9.206;2023-03-22T04:01:41;97909.81;;;7.03;100.00
11314;BME280;5712;48.858;9.206;2023-03-22T04:04:15;97912.63;;;7.00;100.00
11314;BME280;5712;48.858;9.206;2023-03-22T04:06:41;97912.25;;;6.92;100.00
11314;BME280;5712;48.858;9.206;2023-03-22T04:09:09;97916.72;;;6.90;100.00
11314;BME280;5712;48.858;9.206;2023-03-22T04:11:36;97912.31;;;6.91;100.00
11314;BME280;5712;48.858;9.206;2023-03-22T04:14:02;97913.34;;;6.88;100.00
11314;BME280;5712;48.858;9.206;2023-03-22T04:16:30;97914.38;;;6.86;100.00
11314;BME280;5712;48.858;9.206;2023-03-22T04:18:56;97909.53;;;6.78;100.00
11314;BME280;5712;48.858;9.206;2023-03-22T04:21:23;97906.34;;;6.73;100.00
11314;BME280;5712;48.858;9.206;2023-03-22T04:23:49;97909.34;;;6.67;100.00
11314;BME280;5712;48.858;9.206;2023-03-22T04:26:16;97897.47;;;6.60;100.00
11314;BME280;5712;48.858;9.206;2023-03-22T04:28:42;97902.72;;;6.60;100.00
11314;BME280;5712;48.858;9.206;2023-03-22T04:31:09;97896.91;;;6.55;100.00
11314;BME280;5712;48.858;9.206;2023-03-22T04:33:37;97893.84;;;6.47;100.00
11314;BME280;5712;48.858;9.206;2023-03-22T04:36:05;97887.84;;;6.45;100.00
11314;BME280;5712;48.858;9.206;2023-03-22T04:38:35;97894.78;;;6.46;100.00
11314;BME280;5712;48.858;9.206;2023-03-22T04:41:04;97886.50;;;6.38;100.00
11314;BME280;5712;48.858;9.206;2023-03-22T04:43:30;97878.72;;;6.37;100.00
11314;BME280;5712;48.858;9.206;2023-03-22T04:45:59;97883.03;;;6.38;100.00
11314;BME280;5712;48.858;9.206;2023-03-22T04:48:25;97880.47;;;6.36;100.00
11314;BME280;5712;48.858;9.206;2023-03-22T04:50:55;97878.78;;;6.35;100.00
11314;BME280;5712;48.858;9.206;2023-03-22T04:53:22;97873.47;;;6.37;100.00
11314;BME280;5712;48.858;9.206;2023-03-22T04:55:52;97875.34;;;6.35;100.00
11314;BME280;5712;48.858;9.206;2023-03-22T04:58:21;97870.31;;;6.30;100.00
11314;BME280;5712;48.858;9.206;2023-03-22T05:00:48;97867.56;;;6.18;100.00
11314;BME280;5712;48.858;9.206;2023-03-22T05:03:17;97863.47;;;6.12;100.00
11314;BME280;5712;48.858;9.206;2023-03-22T05:05:48;97864.00;;;6.03;100.00
11314;BME280;5712;48.858;9.206;2023-03-22T05:08:18;97856.66;;;5.94;100.00
11314;BME280;5712;48.858;9.206;2023-03-22T05:10:45;97859.44;;;5.91;100.00
11314;BME280;5712;48.858;9.206;2023-03-22T05:13:11;97854.13;;;5.93;100.00
11314;BME280;5712;48.858;9.206;2023-03-22T05:15:38;97857.41;;;5.96;100.00
11314;BME280;5712;48.858;9.206;2023-03-22T05:18:06;97856.00;;;6.06;100.00
11314;BME280;5712;48.858;9.206;2023-03-22T05:20:32;97861.81;;;6.11;100.00
11314;BME280;5712;48.858;9.206;2023-03-22T05:22:58;97856.06;;;6.20;100.00
11314;BME280;5712;48.858;9.206;2023-03-22T05:25:28;97859.84;;;6.30;100.00
11314;BME280;5712;48.858;9.206;2023-03-22T05:27:54;97865.66;;;6.35;100.00
11314;BME280;5712;48.858;9.206;2023-03-22T05:30:25;97859.91;;;6.44;100.00
11314;BME280;5712;48.858;9.206;2023-03-22T05:32:56;97860.50;;;6.49;100.00
11314;BME280;5712;48.858;9.206;2023-03-22T05:35:24;97862.00;;;6.53;100.00
11314;BME280;5712;48.858;9.206;2023-03-22T05:37:50;97864.47;;;6.56;100.00
11314;BME280;5712;48.858;9.206;2023-03-22T05:40:17;97859.56;;;6.50;100.00
11314;BME280;5712;48.858;9.206;2023-03-22T05:42:45;97867.91;;;6.57;100.00
11314;BME280;5712;48.858;9.206;2023-03-22T05:45:11;97862.59;;;6.58;100.00
11314;BME280;5712;48.858;9.206;2023-03-22T05:47:38;97865.78;;;6.63;100.00
11314;BME280;5712;48.858;9.206;2023-03-22T05:50:06;97866.75;;;6.62;100.00
11314;BME280;5712;48.858;9.206;2023-03-22T05:52:32;97867.69;;;6.61;100.00
11314;BME280;5712;48.858;9.206;2023-03-22T05:54:59;97862.97;;;6.66;100.00
11314;BME280;5712;48.858;9.206;2023-03-22T05:57:25;97869.94;;;6.67;100.00
11314;BME280;5712;48.858;9.206;2023-03-22T05:59:55;97870.34;;;6.75;100.00
11314;BME280;5712;48.858;9.206;2023-03-22T06:02:22;97868.47;;;6.77;100.00
11314;BME280;5712;48.858;9.206;2023-03-22T06:04:49;97871.84;;;6.79;100.00
11314;BME280;5712;48.858;9.206;2023-03-22T06:07:16;97871.47;;;6.85;100.00
11314;BME280;5712;48.858;9.206;2023-03-22T06:09:43;97875.03;;;6.84;100.00
11314;BME280;5712;48.858;9.206;2023-03-22T06:12:10;97876.56;;;6.88;100.00
11314;BME280;5712;48.858;9.206;2023-03-22T06:14:36;97869.06;;;6.96;100.00
11314;BME280;5712;48.858;9.206;2023-03-22T06:17:04;97882.50;;;7.06;100.00
11314;BME280;5712;48.858;9.206;2023-03-22T06:19:31;97879.81;;;7.21;100.00
11314;BME280;5712;48.858;9.206;2023-03-22T06:21:57;97879.66;;;7.38;100.00
11314;BME280;5712;48.858;9.206;2023-03-22T06:24:24;97882.41;;;7.50;100.00
11314;BME280;5712;48.858;9.206;2023-03-22T06:26:50;97876.00;;;7.68;100.00
11314;BME280;5712;48.858;9.206;2023-03-22T06:29:17;97880.59;;;7.79;100.00
11314;BME280;5712;48.858;9.206;2023-03-22T06:31:43;97886.88;;;7.90;100.00
11314;BME280;5712;48.858;9.206;2023-03-22T06:34:11;97894.31;;;7.98;100.00
11314;BME280;5712;48.858;9.206;2023-03-22T06:36:37;97882.25;;;8.08;100.00
11314;BME280;5712;48.858;9.206;2023-03-22T06:39:05;97882.63;;;8.16;100.00
11314;BME280;5712;48.858;9.206;2023-03-22T06:41:32;97894.28;;;8.26;100.00
11314;BME280;5712;48.858;9.206;2023-03-22T06:43:59;97895.59;;;8.33;100.00
11314;BME280;5712;48.858;9.206;2023-03-22T06:46:25;97895.19;;;8.39;100.00
11314;BME280;5712;48.858;9.206;2023-03-22T06:48:51;97902.41;;;8.49;100.00
11314;BME280;5712;48.858;9.206;2023-03-22T06:51:19;97890.63;;;8.55;100.00
11314;BME280;5712;48.858;9.206;2023-03-22T06:53:46;97895.31;;;8.64;100.00
11314;BME280;5712;48.858;9.206;2023-03-22T06:56:12;97893.72;;;8.74;100.00
11314;BME280;5712;48.858;9.206;2023-03-22T06:58:39;97897.69;;;8.81;100.00
11314;BME280;5712;48.858;9.206;2023-03-22T07:01:05;97886.75;;;8.87;100.00
11314;BME280;5712;48.858;9.206;2023-03-22T07:03:32;97890.78;;;9.05;100.00
11314;BME280;5712;48.858;9.206;2023-03-22T07:06:02;97882.66;;;9.08;100.00
11314;BME280;5712;48.858;9.206;2023-03-22T07:08:31;97889.56;;;9.23;100.00
11314;BME280;5712;48.858;9.206;2023-03-22T07:10:57;97893.47;;;9.30;100.00
11314;BME280;5712;48.858;9.206;2023-03-22T07:13:24;97889.13;;;9.41;100.00
11314;BME280;5712;48.858;9.206;2023-03-22T07:15:54;97885.56;;;9.55;100.00
11314;BME280;5712;48.858;9.206;2023-03-22T07:18:20;97884.16;;;9.74;100.00
11314;BME280;5712;48.858;9.206;2023-03-22T07:20:47;97882.38;;;9.87;100.00
11314;BME280;5712;48.858;9.206;2023-03-22T07:23:13;97873.88;;;9.95;100.00
11314;BME280;5712;48.858;9.206;2023-03-22T07:25:42;97873.91;;;10.07;99.41
11314;BME280;5712;48.858;9.206;2023-03-22T07:28:09;97875.78;;;10.18;97.36
11314;BME280;5712;48.858;9.206;2023-03-22T07:30:35;97865.06;;;10.32;95.80
11314;BME280;5712;48.858;9.206;2023-03-22T07:33:02;97858.88;;;10.44;94.65
11314;BME280;5712;48.858;9.206;2023-03-22T07:35:29;97860.47;;;10.46;93.71
11314;BME280;5712;48.858;9.206;2023-03-22T07:37:55;97864.22;;;10.55;92.91
11314;BME280;5712;48.858;9.206;2023-03-22T07:40:22;97863.78;;;10.61;91.62
11314;BME280;5712;48.858;9.206;2023-03-22T07:42:50;97855.91;;;10.72;91.23
11314;BME280;5712;48.858;9.206;2023-03-22T07:45:17;97863.16;;;10.81;90.80
11314;BME280;5712;48.858;9.206;2023-03-22T07:47:44;97859.59;;;10.93;90.80
11314;BME280;5712;48.858;9.206;2023-03-22T07:50:11;97856.28;;;11.02;90.63
11314;BME280;5712;48.858;9.206;2023-03-22T07:52:38;97857.75;;;11.17;87.34
11314;BME280;5712;48.858;9.206;2023-03-22T07:55:05;97852.47;;;11.28;87.02
11314;BME280;5712;48.858;9.206;2023-03-22T07:57:31;97852.41;;;11.40;85.63
11314;BME280;5712;48.858;9.206;2023-03-22T07:59:59;97842.47;;;11.66;81.26
11314;BME280;5712;48.858;9.206;2023-03-22T08:02:26;97837.28;;;11.86;78.76
11314;BME280;5712;48.858;9.206;2023-03-22T08:04:53;97831.41;;;11.94;77.12
11314;BME280;5712;48.858;9.206;2023-03-22T08:07:19;97827.19;;;12.02;74.90
11314;BME280;5712;48.858;9.206;2023-03-22T08:09:46;97833.56;;;12.11;73.84
11314;BME280;5712;48.858;9.206;2023-03-22T08:12:13;97826.03;;;12.27;73.28
11314;BME280;5712;48.858;9.206;2023-03-22T08:14:40;97829.75;;;12.35;71.49
11314;BME280;5712;48.858;9.206;2023-03-22T08:17:08;97821.66;;;12.48;70.34
11314;BME280;5712;48.858;9.206;2023-03-22T08:19:34;97827.75;;;12.59;70.51
11314;BME280;5712;48.858;9.206;2023-03-22T08:22:01;97832.94;;;12.61;70.92
11314;BME280;5712;48.858;9.206;2023-03-22T08:24:27;97818.31;;;12.66;69.10
11314;BME280;5712;48.858;9.206;2023-03-22T08:26:54;97822.97;;;12.85;69.77
11314;BME280;5712;48.858;9.206;2023-03-22T08:29:21;97821.97;;;12.97;68.05
11314;BME280;5712;48.858;9.206;2023-03-22T08:31:49;97816.16;;;13.03;69.24
11314;BME280;5712;48.858;9.206;2023-03-22T08:34:17;97814.56;;;13.11;68.47
11314;BME280;5712;48.858;9.206;2023-03-22T08:36:44;97804.00;;;13.21;66.98
11314;BME280;5712;48.858;9.206;2023-03-22T08:39:10;97808.13;;;13.34;67.38
11314;BME280;5712;48.858;9.206;2023-03-22T08:41:37;97815.19;;;13.45;68.39
11314;BME280;5712;48.858;9.206;2023-03-22T08:44:04;97815.94;;;13.56;68.25
11314;BME280;5712;48.858;9.206;2023-03-22T08:46:31;97799.78;;;13.69;66.32
11314;BME280;5712;48.858;9.206;2023-03-22T08:48:57;97796.72;;;13.73;64.56
11314;BME280;5712;48.858;9.206;2023-03-22T08:51:28;97790.31;;;13.76;62.80
11314;BME280;5712;48.858;9.206;2023-03-22T08:53:55;97804.44;;;13.86;64.66
11314;BME280;5712;48.858;9.206;2023-03-22T08:56:24;97804.50;;;13.95;64.38
11314;BME280;5712;48.858;9.206;2023-03-22T08:58:51;97809.13;;;14.03;66.09
11314;BME280;5712;48.858;9.206;2023-03-22T09:01:18;97806.13;;;14.17;65.63
11314;BME280;5712;48.858;9.206;2023-03-22T09:03:45;97775.09;;;14.27;61.42
11314;BME280;5712;48.858;9.206;2023-03-22T09:06:13;97797.78;;;14.40;63.09
11314;BME280;5712;48.858;9.206;2023-03-22T09:08:41;97775.41;;;14.43;61.26
11314;BME280;5712;48.858;9.206;2023-03-22T09:11:07;97774.56;;;14.52;60.64
11314;BME280;5712;48.858;9.206;2023-03-22T09:13:34;97788.44;;;14.65;62.31
11314;BME280;5712;48.858;9.206;2023-03-22T09:16:00;97779.34;;;14.67;61.50
11314;BME280;5712;48.858;9.206;2023-03-22T09:18:28;97785.38;;;14.69;62.01
11314;BME280;5712;48.858;9.206;2023-03-22T09:20:55;97771.09;;;14.80;60.98
11314;BME280;5712;48.858;9.206;2023-03-22T09:23:21;97779.31;;;14.86;61.52
11314;BME280;5712;48.858;9.206;2023-03-22T09:25:52;97780.19;;;14.87;60.76
11314;BME280;5712;48.858;9.206;2023-03-22T09:28:18;97763.38;;;14.86;59.64
11314;BME280;5712;48.858;9.206;2023-03-22T09:30:46;97761.97;;;14.92;59.50
11314;BME280;5712;48.858;9.206;2023-03-22T09:33:12;97765.06;;;14.97;60.35
11314;BME280;5712;48.858;9.206;2023-03-22T09:35:40;97756.09;;;14.98;58.88
11314;BME280;5712;48.858;9.206;2023-03-22T09:38:07;97757.75;;;15.08;59.22
11314;BME280;5712;48.858;9.206;2023-03-22T09:40:36;97758.03;;;15.05;58.93
11314;BME280;5712;48.858;9.206;2023-03-22T09:43:06;97749.34;;;15.03;58.01
11314;BME280;5712;48.858;9.206;2023-03-22T09:45:37;97754.50;;;15.14;58.57
11314;BME280;5712;48.858;9.206;2023-03-22T09:48:09;97744.53;;;15.26;57.76
11314;BME280;5712;48.858;9.206;2023-03-22T09:50:43;97743.53;;;15.46;57.84
11314;BME280;5712;48.858;9.206;2023-03-22T09:53:13;97745.28;;;15.64;58.23
11314;BME280;5712;48.858;9.206;2023-03-22T09:55:43;97727.88;;;15.70;56.62
11314;BME280;5712;48.858;9.206;2023-03-22T09:58:20;97734.69;;;15.82;57.31
11314;BME280;5712;48.858;9.206;2023-03-22T10:00:54;97722.53;;;15.97;56.16
11314;BME280;5712;48.858;9.206;2023-03-22T10:03:31;97704.97;;;16.03;55.57
11314;BME280;5712;48.858;9.206;2023-03-22T10:06:08;97705.59;;;16.15;55.25
11314;BME280;5712;48.858;9.206;2023-03-22T10:08:58;97691.66;;;16.21;54.35
11314;BME280;5712;48.858;9.206;2023-03-22T10:11:38;97691.59;;;16.30;54.42
11314;BME280;5712;48.858;9.206;2023-03-22T10:14:19;97717.66;;;16.36;56.31
11314;BME280;5712;48.858;9.206;2023-03-22T10:16:49;97705.34;;;16.26;55.64
11314;BME280;5712;48.858;9.206;2023-03-22T10:19:20;97698.94;;;16.02;55.49
11314;BME280;5712;48.858;9.206;2023-03-22T10:21:50;97694.13;;;15.88;55.71
11314;BME280;5712;48.858;9.206;2023-03-22T10:24:21;97697.81;;;15.77;55.39
11314;BME280;5712;48.858;9.206;2023-03-22T10:26:50;97691.41;;;15.70;55.04
11314;BME280;5712;48.858;9.206;2023-03-22T10:29:22;97682.13;;;15.74;55.07
11314;BME280;5712;48.858;9.206;2023-03-22T10:31:49;97689.09;;;15.85;55.77
11314;BME280;5712;48.858;9.206;2023-03-22T10:34:19;97686.69;;;16.08;54.63
11314;BME280;5712;48.858;9.206;2023-03-22T10:36:49;97676.19;;;16.24;54.76
11314;BME280;5712;48.858;9.206;2023-03-22T10:39:27;97683.75;;;16.46;54.80
11314;BME280;5712;48.858;9.206;2023-03-22T10:41:56;97678.19;;;16.57;54.21
11314;BME280;5712;48.858;9.206;2023-03-22T10:44:25;97680.63;;;16.68;54.98
11314;BME280;5712;48.858;9.206;2023-03-22T10:46:53;97668.56;;;16.82;53.74
11314;BME280;5712;48.858;9.206;2023-03-22T10:49:24;97662.13;;;16.92;52.97
11314;BME280;5712;48.858;9.206;2023-03-22T10:51:55;97656.88;;;17.08;52.37
11314;BME280;5712;48.858;9.206;2023-03-22T10:54:24;97663.00;;;17.26;52.50
11314;BME280;5712;48.858;9.206;2023-03-22T10:56:51;97653.59;;;17.40;51.68
11314;BME280;5712;48.858;9.206;2023-03-22T10:59:47;97667.84;;;17.56;53.46
11314;BME280;5712;48.858;9.206;2023-03-22T11:02:20;97654.72;;;17.71;52.72
11314;BME280;5712;48.858;9.206;2023-03-22T11:04:49;97648.88;;;17.67;51.41
11314;BME280;5712;48.858;9.206;2023-03-22T11:07:32;97642.69;;;17.67;51.89
11314;BME280;5712;48.858;9.206;2023-03-22T11:10:19;97648.22;;;17.73;51.82
11314;BME280;5712;48.858;9.206;2023-03-22T11:12:49;97636.16;;;17.61;51.12
11314;BME280;5712;48.858;9.206;2023-03-22T11:15:24;97641.19;;;17.72;51.95
11314;BME280;5712;48.858;9.206;2023-03-22T11:17:58;97639.19;;;17.74;51.61
11314;BME280;5712;48.858;9.206;2023-03-22T11:20:26;97625.59;;;17.60;50.71
11314;BME280;5712;48.858;9.206;2023-03-22T11:22:53;97631.09;;;17.50;51.50
11314;BME280;5712;48.858;9.206;2023-03-22T11:25:26;97637.13;;;17.52;51.62
11314;BME280;5712;48.858;9.206;2023-03-22T11:27:55;97631.66;;;17.62;51.57
11314;BME280;5712;48.858;9.206;2023-03-22T11:30:25;97616.28;;;17.64;50.42
11314;BME280;5712;48.858;9.206;2023-03-22T11:32:59;97611.13;;;17.70;50.21
11314;BME280;5712;48.858;9.206;2023-03-22T11:35:29;97618.00;;;17.81;50.79
11314;BME280;5712;48.858;9.206;2023-03-22T11:37:56;97611.66;;;17.82;49.97
11314;BME280;5712;48.858;9.206;2023-03-22T11:40:25;97610.81;;;17.81;50.01
11314;BME280;5712;48.858;9.206;2023-03-22T11:42:54;97610.81;;;17.81;49.78
11314;BME280;5712;48.858;9.206;2023-03-22T11:45:25;97599.81;;;17.92;49.53
11314;BME280;5712;48.858;9.206;2023-03-22T11:47:52;97594.81;;;18.05;49.22
11314;BME280;5712;48.858;9.206;2023-03-22T11:50:26;97597.50;;;17.97;49.34
11314;BME280;5712;48.858;9.206;2023-03-22T11:52:53;97598.50;;;17.96;50.40
11314;BME280;5712;48.858;9.206;2023-03-22T11:55:21;97583.31;;;18.05;49.46
11314;BME280;5712;48.858;9.206;2023-03-22T11:57:48;97583.78;;;17.92;48.92
11314;BME280;5712;48.858;9.206;2023-03-22T12:00:19;97588.59;;;17.89;50.09
11314;BME280;5712;48.858;9.206;2023-03-22T12:02:50;97590.78;;;17.93;50.36
11314;BME280;5712;48.858;9.206;2023-03-22T12:05:21;97574.75;;;17.93;49.50
11314;BME280;5712;48.858;9.206;2023-03-22T12:07:52;97587.28;;;18.01;49.63
11314;BME280;5712;48.858;9.206;2023-03-22T12:10:23;97569.44;;;18.01;48.79
11314;BME280;5712;48.858;9.206;2023-03-22T12:12:54;97569.94;;;18.13;48.76
11314;BME280;5712;48.858;9.206;2023-03-22T12:15:22;97581.13;;;18.00;49.13
11314;BME280;5712;48.858;9.206;2023-03-22T12:17:55;97570.13;;;18.19;49.32
11314;BME280;5712;48.858;9.206;2023-03-22T12:20:33;97566.25;;;18.14;48.68
11314;BME280;5712;48.858;9.206;2023-03-22T12:23:11;97549.72;;;18.18;47.72
11314;BME280;5712;48.858;9.206;2023-03-22T12:25:39;97536.50;;;18.17;46.87
11314;BME280;5712;48.858;9.206;2023-03-22T12:28:12;97536.66;;;18.15;46.99
11314;BME280;5712;48.858;9.206;2023-03-22T12:30:42;97533.84;;;18.17;46.94
11314;BME280;5712;48.858;9.206;2023-03-22T12:33:16;97551.53;;;18.02;47.55
11314;BME280;5712;48.858;9.206;2023-03-22T12:35:45;97541.00;;;17.92;47.88
11314;BME280;5712;48.858;9.206;2023-03-22T12:38:22;97544.19;;;18.04;48.10
11314;BME280;5712;48.858;9.206;2023-03-22T12:40:52;97540.34;;;18.14;46.97
11314;BME280;5712;48.858;9.206;2023-03-22T12:43:37;97527.31;;;18.19;46.50
11314;BME280;5712;48.858;9.206;2023-03-22T12:46:04;97541.00;;;18.24;47.51
11314;BME280;5712;48.858;9.206;2023-03-22T12:48:37;97542.34;;;18.28;47.50
11314;BME280;5712;48.858;9.206;2023-03-22T12:51:06;97537.38;;;18.33;47.41
11314;BME280;5712;48.858;9.206;2023-03-22T12:53:34;97522.97;;;18.50;46.87
11314;BME280;5712;48.858;9.206;2023-03-22T12:56:08;97506.88;;;18.58;45.22
11314;BME280;5712;48.858;9.206;2023-03-22T12:58:35;97500.19;;;18.62;44.52
11314;BME280;5712;48.858;9.206;2023-03-22T13:01:11;97500.66;;;18.74;45.23
11314;BME280;5712;48.858;9.206;2023-03-22T13:03:48;97505.78;;;18.99;44.55
11314;BME280;5712;48.858;9.206;2023-03-22T13:06:33;97511.13;;;18.99;45.45
11314;BME280;5712;48.858;9.206;2023-03-22T13:09:35;97486.69;;;18.94;44.15
11314;BME280;5712;48.858;9.206;2023-03-22T13:12:25;97485.69;;;18.95;44.41
11314;BME280;5712;48.858;9.206;2023-03-22T13:14:55;97490.41;;;18.93;44.79
11314;BME280;5712;48.858;9.206;2023-03-22T13:17:37;97451.03;;;19.02;42.54
11314;BME280;5712;48.858;9.206;2023-03-22T13:20:26;97421.81;;;19.15;40.14
11314;BME280;5712;48.858;9.206;2023-03-22T13:23:00;97430.16;;;19.28;40.05
11314;BME280;5712;48.858;9.206;2023-03-22T13:25:29;97433.69;;;19.20;40.44
11314;BME280;5712;48.858;9.206;2023-03-22T13:27:57;97418.34;;;19.06;39.78
11314;BME280;5712;48.858;9.206;2023-03-22T13:30:26;97426.13;;;18.93;40.35
11314;BME280;5712;48.858;9.206;2023-03-22T13:32:57;97415.59;;;18.92;40.38